Time;durP1;ratioP1;P1;durP2;ratioP2;P2;SDS_P1;SDS_P2;PMS_P1;PMS_P2;Temp;Humidity;BMP_temperature;BMP_pressure;BME280_temperature;BME280_humidity;BME280_pressure;Samples;Min_cycle;Max_cycle;Signal;HPM_P1;HPM_P2
2023/06/14 00:00:07;;;;;;;13.63;13.13;;;15.80;99.90;;;;;;5096271;27;20489;-68
2023/06/14 00:02:35;;;;;;;13.20;12.70;;;15.80;99.90;;;;;;5107201;27;20471;-67
2023/06/14 00:05:02;;;;;;;14.17;13.57;;;15.90;99.90;;;;;;5122128;27;20488;-68
2023/06/14 00:07:36;;;;;;;14.30;13.70;;;16.00;99.90;;;;;;5108281;28;20491;-68
2023/06/14 00:10:06;;;;;;;13.37;12.87;;;16.10;99.90;;;;;;5107034;27;20452;-68
2023/06/14 00:12:33;;;;;;;13.80;13.20;;;16.10;99.90;;;;;;5112867;27;20472;-68
2023/06/14 00:15:01;;;;;;;13.43;12.93;;;16.10;99.90;;;;;;5102024;27;20456;-68
2023/06/14 00:17:29;;;;;;;16.00;15.30;;;16.00;99.90;;;;;;5117351;27;20456;-68
2023/06/14 00:19:57;;;;;;;13.03;12.53;;;16.00;99.90;;;;;;5114946;27;20444;-68
2023/06/14 00:22:25;;;;;;;13.00;12.50;;;15.80;99.90;;;;;;5110298;27;20921;-67
2023/06/14 00:24:52;;;;;;;13.47;12.97;;;15.70;99.90;;;;;;5109143;27;20493;-68
2023/06/14 00:27:21;;;;;;;12.90;12.40;;;15.50;99.90;;;;;;5096133;27;20458;-68
2023/06/14 00:29:48;;;;;;;13.10;12.60;;;15.50;99.90;;;;;;5111293;27;20480;-67
2023/06/14 00:32:15;;;;;;;13.43;12.93;;;15.40;99.90;;;;;;5112649;28;20812;-68
2023/06/14 00:34:42;;;;;;;12.90;12.40;;;15.40;99.90;;;;;;5116713;27;20853;-67
2023/06/14 00:37:09;;;;;;;13.23;12.73;;;15.40;99.90;;;;;;5108170;27;20561;-66
2023/06/14 00:39:37;;;;;;;13.27;12.77;;;15.30;99.90;;;;;;5119897;27;20532;-67
2023/06/14 00:42:05;;;;;;;13.23;12.73;;;15.30;99.90;;;;;;5105385;28;20457;-67
2023/06/14 00:44:34;;;;;;;12.73;12.23;;;15.20;99.90;;;;;;5104090;27;20484;-67
2023/06/14 00:47:01;;;;;;;12.83;12.33;;;15.20;99.90;;;;;;5096875;28;20558;-67
2023/06/14 00:49:30;;;;;;;12.87;12.37;;;15.20;99.90;;;;;;5109189;27;20470;-67
2023/06/14 00:51:57;;;;;;;13.17;12.67;;;15.20;99.90;;;;;;5110701;27;20461;-67
2023/06/14 00:54:25;;;;;;;12.70;12.20;;;15.00;99.90;;;;;;5108509;27;20464;-67
2023/06/14 00:56:52;;;;;;;13.40;12.90;;;14.90;99.90;;;;;;5096496;27;20480;-67
2023/06/14 00:59:20;;;;;;;13.40;12.90;;;14.70;99.90;;;;;;5105385;27;20554;-67
2023/06/14 01:01:48;;;;;;;12.67;12.17;;;14.70;99.90;;;;;;5101559;27;20461;-68
2023/06/14 01:04:17;;;;;;;13.13;12.63;;;14.70;99.90;;;;;;5104705;27;21062;-67
2023/06/14 01:06:51;;;;;;;13.30;12.80;;;14.60;99.90;;;;;;5109268;27;21048;-66
2023/06/14 01:09:23;;;;;;;12.97;12.47;;;14.60;99.90;;;;;;5104793;27;20746;-67
2023/06/14 01:11:59;;;;;;;13.30;12.80;;;14.70;99.90;;;;;;5111177;27;20461;-67
2023/06/14 01:14:28;;;;;;;13.17;12.67;;;14.70;99.90;;;;;;5112562;27;20453;-67
2023/06/14 01:16:57;;;;;;;12.40;11.90;;;14.70;99.90;;;;;;5096862;28;20493;-67
2023/06/14 01:19:25;;;;;;;12.63;12.13;;;14.60;99.90;;;;;;5115519;27;20611;-68
2023/06/14 01:21:52;;;;;;;12.60;12.10;;;14.50;99.90;;;;;;5102960;28;20468;-67
2023/06/14 01:24:25;;;;;;;12.43;11.93;;;14.50;99.90;;;;;;5121172;28;20456;-67
2023/06/14 01:26:55;;;;;;;12.57;12.07;;;14.50;99.90;;;;;;5106619;28;20492;-67
2023/06/14 01:29:25;;;;;;;12.70;12.20;;;14.50;99.90;;;;;;5100362;28;20832;-67
2023/06/14 01:31:53;;;;;;;12.30;11.80;;;14.40;99.90;;;;;;5105269;28;20681;-66
2023/06/14 01:34:21;;;;;;;12.70;12.20;;;14.40;99.90;;;;;;5114411;28;20461;-68
2023/06/14 01:36:50;;;;;;;12.63;12.13;;;14.40;99.90;;;;;;5111302;28;20464;-66
2023/06/14 01:39:19;;;;;;;12.60;12.10;;;14.60;99.90;;;;;;5105658;28;20481;-67
2023/06/14 01:41:48;;;;;;;12.97;12.47;;;14.70;99.90;;;;;;5112919;28;20449;-67
2023/06/14 01:44:16;;;;;;;12.93;12.43;;;14.70;99.90;;;;;;5105138;28;20466;-68
2023/06/14 01:46:45;;;;;;;13.17;12.67;;;14.60;99.90;;;;;;5107378;27;20549;-67
2023/06/14 01:49:12;;;;;;;13.23;12.73;;;14.60;99.90;;;;;;5102756;27;20458;-68
2023/06/14 01:51:39;;;;;;;13.57;13.07;;;14.60;99.90;;;;;;5113013;27;20464;-67
2023/06/14 01:54:06;;;;;;;13.00;12.50;;;14.50;99.90;;;;;;5108812;27;20453;-67
2023/06/14 01:56:35;;;;;;;13.40;12.90;;;14.60;99.90;;;;;;5111608;27;20488;-67
2023/06/14 01:59:01;;;;;;;13.23;12.73;;;14.70;99.90;;;;;;5107943;27;20465;-66
2023/06/14 02:01:28;;;;;;;13.23;12.73;;;14.70;99.90;;;;;;5106542;28;20453;-67
2023/06/14 02:03:55;;;;;;;13.60;13.10;;;14.80;99.90;;;;;;5106765;27;20464;-69
2023/06/14 02:06:22;;;;;;;13.40;12.87;;;14.90;99.90;;;;;;5124632;27;20487;-68
2023/06/14 02:08:49;;;;;;;12.90;12.40;;;15.00;99.90;;;;;;5112531;27;20564;-68
2023/06/14 02:11:17;;;;;;;13.43;12.93;;;15.00;99.90;;;;;;5101397;28;20993;-68
2023/06/14 02:13:45;;;;;;;14.27;13.67;;;14.90;99.90;;;;;;5111151;27;20543;-66
2023/06/14 02:16:14;;;;;;;13.80;13.30;;;14.80;99.90;;;;;;5116643;27;20595;-65
2023/06/14 02:18:41;;;;;;;13.60;13.10;;;14.70;99.90;;;;;;5094793;27;20453;-66
2023/06/14 02:21:08;;;;;;;14.00;13.40;;;14.70;99.90;;;;;;5113341;27;20473;-68
2023/06/14 02:23:36;;;;;;;13.63;13.13;;;14.80;99.90;;;;;;5104791;27;20471;-68
2023/06/14 02:26:03;;;;;;;15.83;15.17;;;14.80;99.90;;;;;;5122589;27;20988;-65
2023/06/14 02:28:31;;;;;;;13.83;13.30;;;14.90;99.90;;;;;;5109439;28;20461;-66
2023/06/14 02:31:00;;;;;;;14.60;14.00;;;15.00;99.90;;;;;;5125873;27;20508;-66
2023/06/14 02:33:27;;;;;;;14.27;13.67;;;15.10;99.90;;;;;;5095837;27;20504;-67
2023/06/14 02:35:56;;;;;;;13.63;13.13;;;15.10;99.90;;;;;;5122341;27;20793;-66
2023/06/14 02:38:23;;;;;;;13.70;13.20;;;15.10;99.90;;;;;;5095092;27;20488;-67
2023/06/14 02:40:50;;;;;;;14.47;13.87;;;15.20;99.90;;;;;;5113970;27;20486;-66
2023/06/14 02:43:18;;;;;;;14.40;13.80;;;15.20;99.90;;;;;;5107995;27;20489;-67
2023/06/14 02:45:45;;;;;;;13.70;13.20;;;15.20;99.90;;;;;;5107433;27;20481;-66
2023/06/14 02:48:13;;;;;;;13.67;13.13;;;15.30;99.90;;;;;;5099666;27;20469;-67
2023/06/14 02:50:41;;;;;;;14.03;13.43;;;15.30;99.90;;;;;;5120273;27;20806;-67
2023/06/14 02:53:07;;;;;;;14.30;13.70;;;15.30;99.90;;;;;;5118869;27;20458;-68
2023/06/14 02:55:38;;;;;;;14.20;13.60;;;15.20;99.90;;;;;;5120636;27;20530;-68
2023/06/14 02:58:05;;;;;;;14.00;13.40;;;15.30;99.90;;;;;;5113779;27;20457;-67
2023/06/14 03:00:32;;;;;;;14.10;13.50;;;15.30;99.90;;;;;;5106083;27;20509;-67
2023/06/14 03:03:01;;;;;;;14.10;13.50;;;15.30;99.90;;;;;;5114643;27;20472;-68
2023/06/14 03:05:29;;;;;;;13.67;13.10;;;15.30;99.90;;;;;;5107153;27;20835;-68
2023/06/14 03:07:57;;;;;;;14.60;14.00;;;15.40;99.90;;;;;;5103016;27;20826;-67
2023/06/14 03:10:25;;;;;;;14.27;13.67;;;15.50;99.90;;;;;;5113181;27;20547;-68
2023/06/14 03:12:52;;;;;;;14.17;13.57;;;15.40;99.90;;;;;;5105588;27;20464;-68
2023/06/14 03:15:19;;;;;;;14.57;13.87;;;15.30;99.90;;;;;;5101728;28;20486;-67
2023/06/14 03:17:49;;;;;;;15.10;14.50;;;15.30;99.90;;;;;;5104882;28;20469;-67
2023/06/14 03:20:17;;;;;;;14.90;14.20;;;15.30;99.90;;;;;;5106103;27;20465;-67
2023/06/14 03:22:47;;;;;;;13.77;13.17;;;15.20;99.90;;;;;;5094091;27;20458;-66
2023/06/14 03:25:15;;;;;;;15.17;14.47;;;15.20;99.90;;;;;;5111897;27;20959;-67
2023/06/14 03:27:42;;;;;;;14.20;13.60;;;15.20;99.90;;;;;;5104676;27;20567;-68
2023/06/14 03:30:10;;;;;;;14.43;13.83;;;15.20;99.90;;;;;;5113603;27;20498;-67
2023/06/14 03:32:37;;;;;;;14.20;13.60;;;15.20;99.90;;;;;;5108665;27;20452;-66
2023/06/14 03:35:05;;;;;;;14.30;13.70;;;15.30;99.90;;;;;;5099364;27;20457;-67
2023/06/14 03:37:31;;;;;;;13.83;13.23;;;15.10;99.90;;;;;;5115369;27;20468;-67
2023/06/14 03:40:00;;;;;;;14.10;13.50;;;14.90;99.90;;;;;;5123097;27;20801;-68
2023/06/14 03:42:27;;;;;;;14.40;13.80;;;14.80;99.90;;;;;;5104537;27;20450;-67
2023/06/14 03:44:55;;;;;;;13.90;13.30;;;14.70;99.90;;;;;;5110064;27;20841;-67
2023/06/14 03:47:22;;;;;;;13.83;13.23;;;14.60;99.90;;;;;;5100126;27;20484;-67
2023/06/14 03:49:48;;;;;;;14.43;13.83;;;14.50;99.90;;;;;;5108784;27;20477;-68
2023/06/14 03:52:17;;;;;;;14.77;14.17;;;14.50;99.90;;;;;;5104156;27;20999;-66
2023/06/14 03:54:44;;;;;;;14.20;13.60;;;14.40;99.90;;;;;;5113518;27;20469;-67
2023/06/14 03:57:13;;;;;;;14.17;13.57;;;14.50;99.90;;;;;;5123535;27;20490;-66
2023/06/14 03:59:41;;;;;;;14.40;13.80;;;14.60;99.90;;;;;;5096689;27;20464;-67
2023/06/14 04:02:09;;;;;;;13.40;12.90;;;14.80;99.90;;;;;;5097925;28;20453;-67
2023/06/14 04:04:37;;;;;;;14.40;13.80;;;14.90;99.90;;;;;;5119389;27;20932;-68
2023/06/14 04:07:04;;;;;;;13.83;13.23;;;15.10;99.90;;;;;;5114345;27;20475;-68
2023/06/14 04:09:32;;;;;;;13.80;13.23;;;15.20;99.90;;;;;;5105187;27;20474;-67
2023/06/14 04:11:59;;;;;;;16.80;16.00;;;15.30;99.90;;;;;;5100242;27;20484;-67
2023/06/14 04:14:28;;;;;;;14.20;13.60;;;15.30;99.90;;;;;;5108637;27;20465;-67
2023/06/14 04:16:54;;;;;;;15.30;14.50;;;15.40;99.90;;;;;;5113443;27;20491;-67
2023/06/14 04:19:21;;;;;;;14.57;13.97;;;15.50;99.90;;;;;;5116200;27;20468;-68
2023/06/14 04:21:48;;;;;;;15.20;14.60;;;15.50;99.90;;;;;;5102040;27;20466;-67
2023/06/14 04:24:16;;;;;;;15.40;14.70;;;15.60;99.90;;;;;;5122979;27;20820;-65
2023/06/14 04:26:44;;;;;;;14.67;14.07;;;15.70;99.90;;;;;;5103465;27;20477;-67
2023/06/14 04:29:14;;;;;;;15.23;14.53;;;15.80;99.90;;;;;;5094030;27;20547;-68
2023/06/14 04:31:42;;;;;;;15.43;14.70;;;15.90;99.90;;;;;;5111475;27;20464;-67
2023/06/14 04:34:15;;;;;;;14.27;13.67;;;16.00;99.90;;;;;;5122133;27;20444;-67
2023/06/14 04:36:49;;;;;;;15.80;15.10;;;15.90;99.90;;;;;;5092090;28;20461;-67
2023/06/14 04:39:17;;;;;;;15.90;14.73;;;16.00;99.90;;;;;;5102784;27;20495;-67
2023/06/14 04:41:44;;;;;;;15.37;14.67;;;16.00;99.90;;;;;;5098131;27;20918;-67
2023/06/14 04:44:12;;;;;;;15.30;14.60;;;16.10;99.90;;;;;;5113220;27;20461;-68
2023/06/14 04:46:45;;;;;;;14.57;13.97;;;16.20;99.90;;;;;;5105473;27;20584;-67
2023/06/14 04:49:14;;;;;;;16.27;15.57;;;16.20;99.90;;;;;;5121159;27;20513;-68
2023/06/14 04:51:41;;;;;;;15.43;14.73;;;16.40;99.90;;;;;;5096056;28;20901;-67
2023/06/14 04:54:10;;;;;;;14.77;14.17;;;16.40;99.90;;;;;;5112997;27;20979;-67
2023/06/14 04:56:38;;;;;;;15.50;14.80;;;16.50;99.90;;;;;;5101518;27;20462;-67
2023/06/14 04:59:05;;;;;;;15.70;15.00;;;16.70;99.90;;;;;;5100308;27;20933;-68
2023/06/14 05:01:32;;;;;;;14.77;14.17;;;16.80;99.90;;;;;;5100012;27;20571;-68
2023/06/14 05:03:59;;;;;;;16.83;16.00;;;16.80;99.90;;;;;;5094810;27;20466;-67
2023/06/14 05:06:28;;;;;;;15.50;14.80;;;17.00;99.90;;;;;;5096735;28;20480;-67
2023/06/14 05:08:55;;;;;;;16.50;15.60;;;17.10;99.90;;;;;;5107218;27;20470;-67
2023/06/14 05:11:23;;;;;;;15.70;14.80;;;17.20;99.90;;;;;;5111163;27;20461;-68
2023/06/14 05:13:51;;;;;;;15.23;14.53;;;17.30;99.90;;;;;;5112944;27;20479;-67
2023/06/14 05:16:19;;;;;;;15.90;15.20;;;17.30;99.90;;;;;;5098297;28;20493;-67
2023/06/14 05:18:47;;;;;;;15.20;14.50;;;17.50;99.90;;;;;;5090888;28;20552;-67
2023/06/14 05:21:17;;;;;;;15.67;14.97;;;17.50;99.90;;;;;;5116460;27;20464;-68
2023/06/14 05:23:45;;;;;;;15.33;14.63;;;17.60;99.90;;;;;;5116719;28;20463;-68
2023/06/14 05:26:12;;;;;;;15.17;14.50;;;17.80;99.90;;;;;;5110733;28;20564;-67
2023/06/14 05:28:40;;;;;;;15.20;14.60;;;17.90;99.90;;;;;;5120810;28;20503;-67
2023/06/14 05:31:07;;;;;;;16.00;15.30;;;18.00;99.90;;;;;;5117843;28;20456;-67
2023/06/14 05:33:34;;;;;;;15.60;14.90;;;18.20;99.90;;;;;;5097399;28;20457;-67
2023/06/14 05:38:43;;;;;;;15.00;14.40;;;18.40;99.90;;;;;;5100101;28;20574;-68
2023/06/14 05:41:11;;;;;;;15.20;14.50;;;18.60;99.90;;;;;;5113547;28;20761;-67
2023/06/14 05:43:39;;;;;;;15.27;14.57;;;18.60;99.90;;;;;;5122351;28;20934;-68
2023/06/14 05:46:06;;;;;;;15.60;14.90;;;18.70;99.90;;;;;;5090866;28;20491;-69
2023/06/14 05:48:33;;;;;;;16.23;15.53;;;18.90;99.90;;;;;;5102187;28;20465;-68
2023/06/14 05:51:00;;;;;;;16.53;15.73;;;19.10;99.90;;;;;;5100506;28;20456;-68
2023/06/14 05:53:27;;;;;;;16.10;15.40;;;19.20;99.90;;;;;;5114365;28;20580;-66
2023/06/14 05:55:54;;;;;;;15.90;15.20;;;19.30;99.90;;;;;;5115511;28;20869;-67
2023/06/14 05:58:23;;;;;;;15.40;14.70;;;19.30;99.90;;;;;;5103802;28;20524;-67
2023/06/14 06:00:50;;;;;;;16.73;15.97;;;19.40;99.90;;;;;;5114670;28;20461;-67
2023/06/14 06:03:17;;;;;;;16.20;15.50;;;19.50;99.90;;;;;;5108243;28;20493;-67
2023/06/14 06:05:44;;;;;;;16.40;15.70;;;19.60;99.90;;;;;;5102625;28;20556;-67
2023/06/14 06:08:11;;;;;;;20.00;17.90;;;19.90;99.90;;;;;;5093976;28;20508;-67
2023/06/14 06:10:38;;;;;;;15.87;15.17;;;19.80;99.90;;;;;;5088621;28;20540;-68
2023/06/14 06:13:05;;;;;;;16.07;15.37;;;19.80;99.90;;;;;;5094058;28;20871;-68
2023/06/14 06:15:33;;;;;;;16.17;15.47;;;20.00;99.90;;;;;;5093495;28;20476;-68
2023/06/14 06:18:00;;;;;;;16.50;15.70;;;20.00;99.90;;;;;;5094172;28;20462;-67
2023/06/14 06:20:28;;;;;;;16.20;15.50;;;20.20;99.90;;;;;;5095287;28;20461;-68
2023/06/14 06:22:56;;;;;;;16.00;15.30;;;20.00;99.90;;;;;;5091867;28;20466;-68
2023/06/14 06:25:25;;;;;;;15.80;15.10;;;20.10;99.90;;;;;;5091882;28;21048;-68
2023/06/14 06:27:52;;;;;;;17.87;17.00;;;20.30;99.90;;;;;;5107354;28;21027;-68
2023/06/14 06:30:19;;;;;;;16.57;15.77;;;20.30;99.90;;;;;;5099367;28;20456;-68
2023/06/14 06:32:48;;;;;;;15.70;15.00;;;20.40;99.90;;;;;;5113260;27;20876;-68
2023/06/14 06:35:15;;;;;;;17.40;16.40;;;20.50;99.90;;;;;;5090103;27;20494;-69
2023/06/14 06:37:42;;;;;;;16.60;15.90;;;20.60;99.90;;;;;;5099281;27;20871;-68
2023/06/14 06:40:10;;;;;;;16.63;15.83;;;20.70;99.90;;;;;;5102948;27;20983;-67
2023/06/14 06:42:37;;;;;;;18.20;17.27;;;20.90;99.90;;;;;;5090295;27;20457;-68
2023/06/14 06:45:05;;;;;;;16.20;15.50;;;21.00;99.90;;;;;;5089789;27;20470;-67
2023/06/14 06:47:31;;;;;;;16.83;16.03;;;21.20;99.90;;;;;;5099337;27;20763;-68
2023/06/14 06:50:00;;;;;;;16.13;15.43;;;21.20;99.90;;;;;;5094103;27;20544;-67
2023/06/14 06:52:27;;;;;;;17.17;16.37;;;21.30;99.90;;;;;;5087848;28;20943;-68
2023/06/14 06:54:55;;;;;;;16.47;15.67;;;21.50;99.90;;;;;;5102474;28;20461;-67
2023/06/14 06:57:23;;;;;;;16.83;16.03;;;21.70;99.90;;;;;;5097421;27;20477;-68
2023/06/14 06:59:50;;;;;;;15.93;15.23;;;21.80;99.90;;;;;;5098417;28;20740;-67
2023/06/14 07:02:17;;;;;;;16.57;15.87;;;22.00;99.90;;;;;;5090356;28;20560;-68
2023/06/14 07:04:44;;;;;;;16.47;15.67;;;22.10;99.90;;;;;;5093985;27;20458;-67
2023/06/14 07:07:12;;;;;;;17.77;16.97;;;22.10;99.80;;;;;;5103517;27;20508;-66
2023/06/14 07:09:40;;;;;;;16.87;16.07;;;22.20;99.90;;;;;;5095022;28;20488;-67
2023/06/14 07:12:07;;;;;;;16.60;15.80;;;22.40;99.30;;;;;;5089306;27;20462;-68
2023/06/14 07:14:34;;;;;;;16.23;15.53;;;22.70;98.90;;;;;;5095882;27;20461;-68
2023/06/14 07:17:01;;;;;;;16.10;15.40;;;22.80;98.00;;;;;;5095914;27;20485;-68
2023/06/14 07:19:28;;;;;;;16.40;15.67;;;23.20;97.50;;;;;;5088024;27;21007;-68
2023/06/14 07:21:55;;;;;;;16.10;15.40;;;23.40;97.50;;;;;;5093569;28;20465;-68
2023/06/14 07:24:23;;;;;;;18.23;17.23;;;23.30;95.90;;;;;;5108164;27;20535;-68
2023/06/14 07:26:51;;;;;;;17.30;16.50;;;23.20;95.60;;;;;;5091526;27;20477;-68
2023/06/14 07:29:17;;;;;;;16.17;15.47;;;22.80;94.40;;;;;;5106304;27;20929;-68
2023/06/14 07:31:45;;;;;;;15.80;15.10;;;22.90;95.90;;;;;;5109803;27;20461;-68
2023/06/14 07:34:12;;;;;;;16.23;15.53;;;23.50;95.80;;;;;;5104079;27;20465;-68
2023/06/14 07:36:39;;;;;;;15.80;15.10;;;23.50;94.00;;;;;;5090541;27;20458;-68
2023/06/14 07:39:06;;;;;;;16.17;15.47;;;23.30;93.40;;;;;;5093301;27;20476;-68
2023/06/14 07:41:34;;;;;;;17.17;16.37;;;23.40;93.60;;;;;;5095588;27;20544;-68
2023/06/14 07:44:01;;;;;;;16.57;15.87;;;23.20;93.40;;;;;;5091392;27;20581;-68
2023/06/14 07:46:28;;;;;;;15.83;15.13;;;23.50;93.10;;;;;;5094808;27;20494;-67
2023/06/14 07:48:55;;;;;;;15.90;15.20;;;23.80;91.80;;;;;;5102836;27;20510;-68
2023/06/14 07:51:23;;;;;;;16.00;15.30;;;23.90;92.00;;;;;;5091348;27;20960;-68
2023/06/14 07:53:50;;;;;;;16.20;15.50;;;24.20;91.40;;;;;;5092208;27;20464;-68
2023/06/14 07:56:16;;;;;;;16.53;15.83;;;24.40;90.30;;;;;;5096491;27;20977;-67
2023/06/14 07:58:45;;;;;;;16.00;15.30;;;24.10;90.40;;;;;;5092539;27;20461;-67
2023/06/14 08:01:12;;;;;;;16.70;15.90;;;24.10;90.60;;;;;;5096092;27;20494;-68
2023/06/14 08:03:39;;;;;;;16.90;16.00;;;24.40;89.00;;;;;;5097720;27;20457;-67
2023/06/14 08:06:07;;;;;;;16.57;15.77;;;24.50;88.80;;;;;;5094253;28;20464;-67
2023/06/14 08:08:34;;;;;;;17.40;16.60;;;25.10;86.40;;;;;;5093946;27;20478;-68
2023/06/14 08:11:01;;;;;;;16.20;15.40;;;25.40;83.80;;;;;;5097788;27;20453;-68
2023/06/14 08:13:28;;;;;;;39.23;17.00;;;26.10;80.70;;;;;;5096294;27;20739;-67
2023/06/14 08:15:58;;;;;;;16.77;16.00;;;26.70;79.80;;;;;;5091967;28;20495;-67
2023/06/14 08:18:25;;;;;;;15.80;15.10;;;27.00;76.60;;;;;;5088669;27;20469;-68
2023/06/14 08:20:54;;;;;;;16.97;16.07;;;26.80;76.60;;;;;;5087650;27;20655;-67
2023/06/14 08:23:21;;;;;;;16.13;15.43;;;27.50;75.40;;;;;;5109228;27;20829;-68
2023/06/14 08:25:48;;;;;;;16.07;15.37;;;27.90;72.70;;;;;;5098348;27;20463;-68
2023/06/14 08:28:16;;;;;;;16.20;15.50;;;27.80;73.60;;;;;;5101414;27;20478;-67
2023/06/14 08:30:43;;;;;;;16.57;15.87;;;28.40;70.60;;;;;;5100300;27;20823;-68
2023/06/14 08:33:12;;;;;;;16.20;15.50;;;28.50;66.80;;;;;;5088743;27;20573;-68
2023/06/14 08:35:39;;;;;;;17.20;16.40;;;28.40;64.10;;;;;;5099616;27;20571;-68
2023/06/14 08:38:06;;;;;;;16.57;15.87;;;28.10;64.00;;;;;;5101155;27;20563;-68
2023/06/14 08:40:39;;;;;;;16.17;15.47;;;28.20;63.70;;;;;;5091438;27;20472;-68
2023/06/14 08:43:06;;;;;;;16.50;15.70;;;28.50;61.70;;;;;;5094669;27;20469;-68
2023/06/14 08:45:33;;;;;;;16.20;15.50;;;28.00;61.50;;;;;;5091744;28;20642;-67
2023/06/14 08:48:01;;;;;;;16.17;15.47;;;27.80;56.70;;;;;;5095607;27;20482;-67
2023/06/14 08:50:30;;;;;;;16.37;15.67;;;27.80;54.10;;;;;;5091078;28;20472;-67
2023/06/14 08:53:00;;;;;;;16.23;15.53;;;28.60;55.80;;;;;;5101641;27;20540;-69
2023/06/14 08:55:29;;;;;;;16.47;15.77;;;28.50;53.30;;;;;;5091860;28;20497;-68
2023/06/14 08:57:58;;;;;;;17.03;16.23;;;28.30;52.90;;;;;;5101378;27;20460;-68
2023/06/14 09:00:26;;;;;;;16.47;15.77;;;28.80;51.40;;;;;;5085067;28;20465;-68
2023/06/14 09:02:57;;;;;;;16.63;15.93;;;28.70;50.70;;;;;;5095360;27;20449;-68
2023/06/14 09:05:25;;;;;;;16.13;15.43;;;28.50;49.60;;;;;;5100953;28;20552;-68
2023/06/14 09:07:54;;;;;;;16.80;16.10;;;28.70;49.60;;;;;;5094349;27;21679;-69
2023/06/14 09:10:22;;;;;;;17.23;16.33;;;28.60;49.10;;;;;;5088506;28;20450;-68
2023/06/14 09:12:49;;;;;;;16.70;15.90;;;28.60;46.30;;;;;;5086846;28;20549;-68
2023/06/14 09:15:16;;;;;;;16.57;15.87;;;28.80;48.20;;;;;;5100943;27;20480;-68
2023/06/14 09:17:44;;;;;;;16.10;15.40;;;28.80;46.70;;;;;;5095941;28;20968;-68
2023/06/14 09:20:13;;;;;;;15.73;15.03;;;29.10;48.10;;;;;;5084038;28;20458;-68
2023/06/14 09:22:41;;;;;;;16.17;15.30;;;29.00;47.50;;;;;;5097190;28;20489;-68
2023/06/14 09:25:11;;;;;;;16.27;15.57;;;28.70;46.70;;;;;;5098900;28;20494;-68
2023/06/14 09:27:39;;;;;;;17.33;16.43;;;29.00;47.10;;;;;;5090962;28;21089;-67
2023/06/14 09:30:09;;;;;;;16.67;15.87;;;28.70;46.50;;;;;;5093815;28;20874;-67
2023/06/14 09:32:38;;;;;;;16.50;15.80;;;29.10;46.00;;;;;;5096644;28;20453;-67
2023/06/14 09:35:07;;;;;;;16.20;15.50;;;28.90;45.80;;;;;;5102021;28;20484;-68
2023/06/14 09:37:35;;;;;;;16.73;15.93;;;29.20;45.70;;;;;;5105948;28;20568;-67
2023/06/14 09:40:04;;;;;;;15.90;15.20;;;28.70;45.50;;;;;;5103070;28;20461;-67
2023/06/14 09:42:35;;;;;;;15.93;15.23;;;28.60;45.50;;;;;;5087230;28;20838;-67
2023/06/14 09:45:04;;;;;;;16.17;15.47;;;28.30;46.10;;;;;;5103136;28;20818;-68
2023/06/14 09:47:31;;;;;;;15.80;15.10;;;28.50;45.80;;;;;;5087679;28;20461;-68
2023/06/14 09:50:00;;;;;;;16.03;15.33;;;28.60;46.80;;;;;;5090319;28;20450;-67
2023/06/14 09:52:28;;;;;;;16.53;15.83;;;29.30;46.40;;;;;;5092980;28;20461;-68
2023/06/14 09:54:56;;;;;;;16.93;16.13;;;30.30;46.80;;;;;;5090927;28;20457;-68
2023/06/14 09:57:25;;;;;;;15.40;14.80;;;30.60;47.70;;;;;;5105199;28;20465;-68
2023/06/14 09:59:58;;;;;;;15.77;15.07;;;30.70;47.60;;;;;;5100023;28;20466;-67
2023/06/14 10:02:27;;;;;;;15.97;15.27;;;30.60;47.20;;;;;;5099087;28;20471;-68
2023/06/14 10:05:00;;;;;;;17.43;15.67;;;30.40;47.90;;;;;;5083385;28;20462;-68
2023/06/14 10:07:30;;;;;;;15.87;15.17;;;29.90;47.00;;;;;;5098356;27;20456;-69
2023/06/14 10:09:58;;;;;;;16.47;15.77;;;29.60;48.30;;;;;;5091894;28;20990;-67
2023/06/14 10:12:26;;;;;;;16.60;15.90;;;29.90;47.40;;;;;;5100799;27;20964;-68
2023/06/14 10:14:55;;;;;;;16.70;16.00;;;30.80;47.20;;;;;;5100599;27;20453;-69
2023/06/14 10:17:34;;;;;;;16.50;15.80;;;30.30;45.50;;;;;;5095248;27;20460;-68
2023/06/14 10:20:15;;;;;;;16.13;15.43;;;29.90;47.10;;;;;;5092750;27;20461;-68
2023/06/14 10:22:48;;;;;;;16.03;15.33;;;29.80;48.30;;;;;;5099102;27;20465;-68
2023/06/14 10:25:27;;;;;;;16.83;15.83;;;30.60;47.00;;;;;;5108963;27;20556;-68
2023/06/14 10:28:02;;;;;;;16.50;15.80;;;30.20;46.60;;;;;;5103664;27;20479;-68
2023/06/14 10:30:31;;;;;;;17.30;16.50;;;29.90;47.20;;;;;;5092116;28;20468;-68
2023/06/14 10:33:07;;;;;;;16.20;15.50;;;29.30;47.30;;;;;;5110790;27;20510;-68
2023/06/14 10:35:35;;;;;;;16.27;15.57;;;29.60;49.10;;;;;;5095580;27;20461;-68
2023/06/14 10:38:09;;;;;;;15.60;14.97;;;29.50;48.20;;;;;;5098728;27;20507;-68
2023/06/14 10:40:36;;;;;;;15.87;15.17;;;29.80;49.00;;;;;;5105999;27;20536;-69
2023/06/14 10:43:22;;;;;;;15.93;15.23;;;29.60;48.80;;;;;;5096801;27;20474;-69
2023/06/14 10:46:18;;;;;;;16.30;15.60;;;29.20;47.70;;;;;;5096321;27;20461;-68
2023/06/14 10:48:46;;;;;;;16.00;15.30;;;29.10;47.40;;;;;;5093881;27;20919;-68
2023/06/14 10:51:21;;;;;;;16.23;15.53;;;28.80;47.40;;;;;;5092148;27;20458;-68
2023/06/14 10:53:49;;;;;;;15.80;15.10;;;29.00;47.40;;;;;;5106744;27;20516;-68
2023/06/14 10:56:29;;;;;;;16.00;15.30;;;29.00;46.90;;;;;;5107938;27;20464;-68
2023/06/14 10:58:57;;;;;;;15.53;14.87;;;29.50;47.00;;;;;;5104468;27;20609;-68
2023/06/14 11:01:37;;;;;;;16.87;16.07;;;30.10;46.80;;;;;;5097637;27;20726;-69
2023/06/14 11:04:11;;;;;;;17.60;16.07;;;29.70;46.50;;;;;;5096800;27;20561;-68
2023/06/14 11:06:47;;;;;;;16.20;15.50;;;29.50;47.50;;;;;;5110504;27;20457;-69
2023/06/14 11:09:53;;;;;;;16.53;15.83;;;29.90;47.60;;;;;;5093583;28;21001;-69
2023/06/14 11:12:22;;;;;;;15.70;15.00;;;30.00;46.30;;;;;;5100586;27;20477;-68
2023/06/14 11:14:50;;;;;;;16.40;15.70;;;30.40;46.80;;;;;;5113675;27;20882;-68
2023/06/14 11:17:18;;;;;;;16.13;15.43;;;31.20;46.00;;;;;;5095833;27;21026;-68
2023/06/14 11:19:45;;;;;;;16.63;15.73;;;30.60;46.40;;;;;;5095400;27;21300;-69
2023/06/14 11:22:14;;;;;;;15.33;14.73;;;31.20;45.80;;;;;;5100624;27;20557;-69
2023/06/14 11:24:41;;;;;;;15.70;15.00;;;31.00;45.70;;;;;;5095701;27;20462;-69
2023/06/14 11:27:08;;;;;;;17.20;16.40;;;31.30;46.30;;;;;;5100512;27;20714;-69
2023/06/14 11:29:35;;;;;;;16.47;15.67;;;32.50;44.50;;;;;;5094341;27;20501;-69
2023/06/14 11:32:02;;;;;;;16.20;15.50;;;32.20;44.00;;;;;;5097415;27;20701;-69
2023/06/14 11:34:30;;;;;;;16.40;15.60;;;31.70;45.20;;;;;;5100376;27;20514;-68
2023/06/14 11:36:57;;;;;;;16.30;15.60;;;31.10;44.70;;;;;;5099338;27;20809;-69
2023/06/14 11:39:27;;;;;;;16.10;15.30;;;31.20;45.80;;;;;;5093335;27;20501;-69
2023/06/14 11:41:55;;;;;;;16.10;15.40;;;32.10;44.90;;;;;;5086621;27;20469;-69
2023/06/14 11:44:23;;;;;;;16.10;15.40;;;32.60;44.40;;;;;;5095971;27;20457;-68
2023/06/14 11:46:50;;;;;;;15.87;15.17;;;33.40;44.40;;;;;;5093921;27;20880;-69
2023/06/14 11:49:17;;;;;;;15.80;15.10;;;33.60;42.90;;;;;;5100614;27;20478;-69
2023/06/14 11:51:45;;;;;;;16.20;15.50;;;34.00;42.40;;;;;;5100193;27;20460;-70
2023/06/14 11:54:13;;;;;;;16.47;15.67;;;34.10;41.30;;;;;;5102223;27;20449;-69
2023/06/14 11:56:40;;;;;;;15.50;14.90;;;33.40;41.40;;;;;;5095876;27;20469;-69
2023/06/14 11:59:07;;;;;;;16.00;15.30;;;33.00;40.70;;;;;;5110401;27;20452;-68
2023/06/14 12:01:39;;;;;;;15.57;14.87;;;33.30;42.00;;;;;;5103253;27;20465;-68
2023/06/14 12:04:06;;;;;;;16.23;15.53;;;33.50;40.80;;;;;;5100400;27;20456;-68
2023/06/14 12:06:35;;;;;;;15.40;14.80;;;34.30;41.90;;;;;;5099488;27;20461;-68
2023/06/14 12:09:06;;;;;;;16.40;15.60;;;33.80;40.50;;;;;;5110980;27;20473;-70
2023/06/14 12:11:35;;;;;;;16.50;15.70;;;33.90;41.60;;;;;;5096187;27;20560;-70
2023/06/14 12:14:04;;;;;;;16.57;15.87;;;34.60;40.30;;;;;;5094104;27;20966;-70
2023/06/14 12:16:33;;;;;;;16.40;15.70;;;34.40;41.10;;;;;;5099948;28;20828;-69
2023/06/14 12:19:08;;;;;;;16.47;15.77;;;34.20;41.40;;;;;;5099701;27;20492;-69
2023/06/14 12:21:38;;;;;;;16.20;15.50;;;33.80;41.40;;;;;;5100023;27;20468;-69
2023/06/14 12:24:07;;;;;;;16.07;15.37;;;34.30;41.40;;;;;;5107578;27;21039;-69
2023/06/14 12:26:39;;;;;;;15.67;15.07;;;34.40;41.30;;;;;;5107041;27;20445;-69
2023/06/14 12:29:06;;;;;;;16.27;15.47;;;33.90;41.30;;;;;;5105516;27;20813;-69
2023/06/14 12:31:33;;;;;;;16.53;15.83;;;32.80;42.80;;;;;;5095107;27;20727;-69
2023/06/14 12:34:00;;;;;;;15.80;15.10;;;33.10;44.00;;;;;;5093968;27;20468;-68
2023/06/14 12:36:28;;;;;;;15.73;15.03;;;33.80;42.60;;;;;;5098171;27;20453;-69